sensor_id;sensor_type;location;lat;lon;timestamp;P1;durP1;ratioP1;P2;durP2;ratioP2
52180;SDS011;38158;53.338;6.514;2023-03-14T00:01:23;23.60;;;4.63;;
52180;SDS011;38158;53.338;6.514;2023-03-14T00:03:49;31.17;;;4.87;;
52180;SDS011;38158;53.338;6.514;2023-03-14T00:06:15;27.80;;;4.72;;
52180;SDS011;38158;53.338;6.514;2023-03-14T00:08:42;20.15;;;3.97;;
52180;SDS011;38158;53.338;6.514;2023-03-14T00:11:13;26.95;;;4.05;;
52180;SDS011;38158;53.338;6.514;2023-03-14T00:13:41;25.65;;;4.38;;
52180;SDS011;38158;53.338;6.514;2023-03-14T00:16:08;20.30;;;4.05;;
52180;SDS011;38158;53.338;6.514;2023-03-14T00:18:36;20.55;;;4.32;;
52180;SDS011;38158;53.338;6.514;2023-03-14T00:21:02;24.00;;;4.35;;
52180;SDS011;38158;53.338;6.514;2023-03-14T00:23:29;23.70;;;4.68;;
52180;SDS011;38158;53.338;6.514;2023-03-14T00:28:25;19.30;;;3.65;;
52180;SDS011;38158;53.338;6.514;2023-03-14T00:30:51;28.00;;;4.28;;
52180;SDS011;38158;53.338;6.514;2023-03-14T00:33:17;20.17;;;3.53;;
52180;SDS011;38158;53.338;6.514;2023-03-14T00:35:42;25.33;;;4.57;;
52180;SDS011;38158;53.338;6.514;2023-03-14T00:38:08;22.05;;;3.42;;
52180;SDS011;38158;53.338;6.514;2023-03-14T00:40:34;22.95;;;3.90;;
52180;SDS011;38158;53.338;6.514;2023-03-14T00:43:04;17.77;;;3.53;;
52180;SDS011;38158;53.338;6.514;2023-03-14T00:45:29;21.02;;;3.35;;
52180;SDS011;38158;53.338;6.514;2023-03-14T00:47:55;30.80;;;4.97;;
52180;SDS011;38158;53.338;6.514;2023-03-14T00:50:21;21.88;;;3.72;;
52180;SDS011;38158;53.338;6.514;2023-03-14T00:52:46;26.02;;;3.47;;
52180;SDS011;38158;53.338;6.514;2023-03-14T00:55:13;21.08;;;3.58;;
52180;SDS011;38158;53.338;6.514;2023-03-14T00:57:39;17.92;;;3.03;;
52180;SDS011;38158;53.338;6.514;2023-03-14T01:00:05;21.58;;;4.05;;
52180;SDS011;38158;53.338;6.514;2023-03-14T01:02:33;26.65;;;3.65;;
52180;SDS011;38158;53.338;6.514;2023-03-14T01:04:58;19.90;;;3.13;;
52180;SDS011;38158;53.338;6.514;2023-03-14T01:07:24;22.33;;;4.72;;
52180;SDS011;38158;53.338;6.514;2023-03-14T01:09:51;17.35;;;2.90;;
52180;SDS011;38158;53.338;6.514;2023-03-14T01:12:17;20.42;;;3.50;;
52180;SDS011;38158;53.338;6.514;2023-03-14T01:14:43;26.65;;;4.47;;
52180;SDS011;38158;53.338;6.514;2023-03-14T01:17:09;26.83;;;4.65;;
52180;SDS011;38158;53.338;6.514;2023-03-14T01:19:34;20.75;;;3.92;;
52180;SDS011;38158;53.338;6.514;2023-03-14T01:22:00;21.13;;;3.28;;
52180;SDS011;38158;53.338;6.514;2023-03-14T01:24:26;20.55;;;3.00;;
52180;SDS011;38158;53.338;6.514;2023-03-14T01:26:51;23.75;;;4.18;;
52180;SDS011;38158;53.338;6.514;2023-03-14T01:29:17;20.50;;;4.63;;
52180;SDS011;38158;53.338;6.514;2023-03-14T01:31:43;17.83;;;3.50;;
52180;SDS011;38158;53.338;6.514;2023-03-14T01:34:08;19.67;;;3.28;;
52180;SDS011;38158;53.338;6.514;2023-03-14T01:36:34;21.05;;;3.20;;
52180;SDS011;38158;53.338;6.514;2023-03-14T01:39:00;16.90;;;2.63;;
52180;SDS011;38158;53.338;6.514;2023-03-14T01:41:26;19.20;;;2.88;;
52180;SDS011;38158;53.338;6.514;2023-03-14T01:43:52;17.77;;;3.47;;
52180;SDS011;38158;53.338;6.514;2023-03-14T01:46:19;16.85;;;2.92;;
52180;SDS011;38158;53.338;6.514;2023-03-14T01:54:14;17.42;;;3.10;;
52180;SDS011;38158;53.338;6.514;2023-03-14T01:57:10;15.70;;;2.80;;
52180;SDS011;38158;53.338;6.514;2023-03-14T01:59:36;18.30;;;2.65;;
52180;SDS011;38158;53.338;6.514;2023-03-14T02:04:32;15.90;;;2.65;;
52180;SDS011;38158;53.338;6.514;2023-03-14T02:07:01;16.40;;;2.03;;
52180;SDS011;38158;53.338;6.514;2023-03-14T02:09:39;17.08;;;2.60;;
52180;SDS011;38158;53.338;6.514;2023-03-14T02:12:07;18.80;;;3.00;;
52180;SDS011;38158;53.338;6.514;2023-03-14T02:14:35;17.75;;;2.60;;
52180;SDS011;38158;53.338;6.514;2023-03-14T02:17:02;20.15;;;2.58;;
52180;SDS011;38158;53.338;6.514;2023-03-14T02:19:45;15.40;;;2.13;;
52180;SDS011;38158;53.338;6.514;2023-03-14T02:22:31;18.40;;;2.13;;
52180;SDS011;38158;53.338;6.514;2023-03-14T02:27:41;14.65;;;2.45;;
52180;SDS011;38158;53.338;6.514;2023-03-14T02:30:11;16.27;;;2.05;;
52180;SDS011;38158;53.338;6.514;2023-03-14T02:33:11;14.80;;;1.98;;
52180;SDS011;38158;53.338;6.514;2023-03-14T02:35:51;11.98;;;2.17;;
52180;SDS011;38158;53.338;6.514;2023-03-14T02:41:31;14.10;;;2.17;;
52180;SDS011;38158;53.338;6.514;2023-03-14T02:43:57;13.95;;;2.10;;
52180;SDS011;38158;53.338;6.514;2023-03-14T02:46:23;16.58;;;2.08;;
52180;SDS011;38158;53.338;6.514;2023-03-14T02:53:53;12.38;;;1.80;;
52180;SDS011;38158;53.338;6.514;2023-03-14T02:56:18;16.08;;;2.38;;
52180;SDS011;38158;53.338;6.514;2023-03-14T02:58:44;11.35;;;1.73;;
52180;SDS011;38158;53.338;6.514;2023-03-14T03:01:09;13.00;;;1.83;;
52180;SDS011;38158;53.338;6.514;2023-03-14T03:03:35;11.10;;;2.28;;
52180;SDS011;38158;53.338;6.514;2023-03-14T03:06:01;10.95;;;1.90;;
52180;SDS011;38158;53.338;6.514;2023-03-14T03:08:27;11.05;;;1.35;;
52180;SDS011;38158;53.338;6.514;2023-03-14T03:10:54;13.13;;;2.27;;
52180;SDS011;38158;53.338;6.514;2023-03-14T03:13:20;11.68;;;1.60;;
52180;SDS011;38158;53.338;6.514;2023-03-14T03:15:46;12.88;;;2.80;;
52180;SDS011;38158;53.338;6.514;2023-03-14T03:18:11;12.10;;;1.85;;
52180;SDS011;38158;53.338;6.514;2023-03-14T03:20:37;11.38;;;2.22;;
52180;SDS011;38158;53.338;6.514;2023-03-14T03:23:03;12.50;;;2.15;;
52180;SDS011;38158;53.338;6.514;2023-03-14T03:25:29;15.57;;;2.63;;
52180;SDS011;38158;53.338;6.514;2023-03-14T03:27:55;14.13;;;2.70;;
52180;SDS011;38158;53.338;6.514;2023-03-14T03:30:21;15.93;;;2.08;;
52180;SDS011;38158;53.338;6.514;2023-03-14T03:32:47;15.15;;;2.20;;
52180;SDS011;38158;53.338;6.514;2023-03-14T03:35:13;12.63;;;2.10;;
52180;SDS011;38158;53.338;6.514;2023-03-14T03:37:39;11.55;;;2.00;;
52180;SDS011;38158;53.338;6.514;2023-03-14T03:40:05;14.88;;;2.45;;
52180;SDS011;38158;53.338;6.514;2023-03-14T03:42:32;16.27;;;2.75;;
52180;SDS011;38158;53.338;6.514;2023-03-14T03:44:59;21.15;;;3.22;;
52180;SDS011;38158;53.338;6.514;2023-03-14T03:47:25;15.88;;;3.08;;
52180;SDS011;38158;53.338;6.514;2023-03-14T03:49:51;17.10;;;2.92;;
52180;SDS011;38158;53.338;6.514;2023-03-14T03:52:17;17.98;;;3.58;;
52180;SDS011;38158;53.338;6.514;2023-03-14T03:54:42;11.85;;;2.90;;
52180;SDS011;38158;53.338;6.514;2023-03-14T03:57:08;16.65;;;3.25;;
52180;SDS011;38158;53.338;6.514;2023-03-14T03:59:34;18.02;;;3.05;;
52180;SDS011;38158;53.338;6.514;2023-03-14T04:02:00;12.65;;;3.33;;
52180;SDS011;38158;53.338;6.514;2023-03-14T04:04:25;25.05;;;3.35;;
52180;SDS011;38158;53.338;6.514;2023-03-14T04:06:51;19.70;;;3.33;;
52180;SDS011;38158;53.338;6.514;2023-03-14T04:09:17;16.42;;;3.13;;
52180;SDS011;38158;53.338;6.514;2023-03-14T04:11:42;17.65;;;3.00;;
52180;SDS011;38158;53.338;6.514;2023-03-14T04:14:08;20.92;;;4.03;;
52180;SDS011;38158;53.338;6.514;2023-03-14T04:16:34;24.55;;;4.00;;
52180;SDS011;38158;53.338;6.514;2023-03-14T04:19:00;25.88;;;4.18;;
52180;SDS011;38158;53.338;6.514;2023-03-14T04:21:26;20.27;;;4.27;;
52180;SDS011;38158;53.338;6.514;2023-03-14T04:23:52;21.40;;;3.25;;
52180;SDS011;38158;53.338;6.514;2023-03-14T04:26:18;23.25;;;3.75;;
52180;SDS011;38158;53.338;6.514;2023-03-14T04:28:43;25.63;;;3.70;;
52180;SDS011;38158;53.338;6.514;2023-03-14T04:31:10;17.95;;;2.88;;
52180;SDS011;38158;53.338;6.514;2023-03-14T04:33:37;14.93;;;3.58;;
52180;SDS011;38158;53.338;6.514;2023-03-14T04:36:03;28.95;;;4.35;;
52180;SDS011;38158;53.338;6.514;2023-03-14T04:40:56;18.88;;;2.95;;
52180;SDS011;38158;53.338;6.514;2023-03-14T04:43:21;19.80;;;3.78;;
52180;SDS011;38158;53.338;6.514;2023-03-14T04:45:47;26.80;;;4.55;;
52180;SDS011;38158;53.338;6.514;2023-03-14T04:48:13;16.80;;;3.10;;
52180;SDS011;38158;53.338;6.514;2023-03-14T04:50:38;21.98;;;3.92;;
52180;SDS011;38158;53.338;6.514;2023-03-14T04:53:04;25.60;;;4.20;;
52180;SDS011;38158;53.338;6.514;2023-03-14T04:55:30;19.67;;;4.38;;
52180;SDS011;38158;53.338;6.514;2023-03-14T04:57:57;24.48;;;5.13;;
52180;SDS011;38158;53.338;6.514;2023-03-14T05:00:23;22.95;;;4.10;;
52180;SDS011;38158;53.338;6.514;2023-03-14T05:02:49;22.95;;;4.22;;
52180;SDS011;38158;53.338;6.514;2023-03-14T05:05:15;24.67;;;4.63;;
52180;SDS011;38158;53.338;6.514;2023-03-14T05:07:41;13.98;;;3.38;;
52180;SDS011;38158;53.338;6.514;2023-03-14T05:10:07;15.57;;;3.88;;
52180;SDS011;38158;53.338;6.514;2023-03-14T05:12:33;16.07;;;4.50;;
52180;SDS011;38158;53.338;6.514;2023-03-14T05:14:59;14.55;;;3.58;;
52180;SDS011;38158;53.338;6.514;2023-03-14T05:17:25;14.45;;;3.67;;
52180;SDS011;38158;53.338;6.514;2023-03-14T05:19:50;18.83;;;4.95;;
52180;SDS011;38158;53.338;6.514;2023-03-14T05:22:16;19.17;;;4.10;;
52180;SDS011;38158;53.338;6.514;2023-03-14T05:24:42;13.32;;;3.90;;
52180;SDS011;38158;53.338;6.514;2023-03-14T05:27:08;17.23;;;3.70;;
52180;SDS011;38158;53.338;6.514;2023-03-14T05:29:33;20.25;;;4.70;;
52180;SDS011;38158;53.338;6.514;2023-03-14T05:31:59;14.55;;;4.05;;
52180;SDS011;38158;53.338;6.514;2023-03-14T05:34:25;11.35;;;3.20;;
52180;SDS011;38158;53.338;6.514;2023-03-14T05:36:51;12.18;;;3.05;;
52180;SDS011;38158;53.338;6.514;2023-03-14T05:39:16;8.50;;;2.92;;
52180;SDS011;38158;53.338;6.514;2023-03-14T05:41:42;14.75;;;3.47;;
52180;SDS011;38158;53.338;6.514;2023-03-14T05:44:07;9.95;;;2.67;;
52180;SDS011;38158;53.338;6.514;2023-03-14T05:46:33;8.13;;;3.30;;
52180;SDS011;38158;53.338;6.514;2023-03-14T05:48:59;11.25;;;2.97;;
52180;SDS011;38158;53.338;6.514;2023-03-14T05:51:25;12.40;;;3.70;;
52180;SDS011;38158;53.338;6.514;2023-03-14T05:53:51;10.20;;;3.22;;
52180;SDS011;38158;53.338;6.514;2023-03-14T05:56:16;8.13;;;2.92;;
52180;SDS011;38158;53.338;6.514;2023-03-14T05:58:42;12.43;;;3.08;;
52180;SDS011;38158;53.338;6.514;2023-03-14T06:01:08;7.43;;;3.42;;
52180;SDS011;38158;53.338;6.514;2023-03-14T06:03:33;9.82;;;2.50;;
52180;SDS011;38158;53.338;6.514;2023-03-14T06:05:59;4.05;;;1.58;;
52180;SDS011;38158;53.338;6.514;2023-03-14T06:08:25;5.43;;;1.52;;
52180;SDS011;38158;53.338;6.514;2023-03-14T06:10:52;6.05;;;1.77;;
52180;SDS011;38158;53.338;6.514;2023-03-14T06:13:18;7.13;;;1.58;;
52180;SDS011;38158;53.338;6.514;2023-03-14T06:15:44;4.82;;;0.50;;
52180;SDS011;38158;53.338;6.514;2023-03-14T06:18:09;6.75;;;0.60;;
52180;SDS011;38158;53.338;6.514;2023-03-14T06:20:38;8.40;;;0.80;;
52180;SDS011;38158;53.338;6.514;2023-03-14T06:23:05;11.23;;;1.45;;
52180;SDS011;38158;53.338;6.514;2023-03-14T06:25:32;13.13;;;1.63;;
52180;SDS011;38158;53.338;6.514;2023-03-14T06:27:58;24.60;;;1.67;;
52180;SDS011;38158;53.338;6.514;2023-03-14T06:30:23;15.63;;;1.40;;
52180;SDS011;38158;53.338;6.514;2023-03-14T06:32:49;18.17;;;2.47;;
52180;SDS011;38158;53.338;6.514;2023-03-14T06:35:15;21.13;;;1.85;;
52180;SDS011;38158;53.338;6.514;2023-03-14T06:37:40;12.23;;;1.48;;
52180;SDS011;38158;53.338;6.514;2023-03-14T06:40:06;11.00;;;1.33;;
52180;SDS011;38158;53.338;6.514;2023-03-14T06:42:33;14.13;;;2.20;;
52180;SDS011;38158;53.338;6.514;2023-03-14T06:44:59;10.30;;;1.25;;
52180;SDS011;38158;53.338;6.514;2023-03-14T06:47:25;11.27;;;1.60;;
52180;SDS011;38158;53.338;6.514;2023-03-14T06:49:50;7.88;;;0.75;;
52180;SDS011;38158;53.338;6.514;2023-03-14T06:52:16;14.35;;;1.80;;
52180;SDS011;38158;53.338;6.514;2023-03-14T06:54:42;11.57;;;0.98;;
52180;SDS011;38158;53.338;6.514;2023-03-14T06:57:07;9.00;;;0.93;;
52180;SDS011;38158;53.338;6.514;2023-03-14T06:59:33;13.13;;;1.30;;
52180;SDS011;38158;53.338;6.514;2023-03-14T07:01:59;9.73;;;0.95;;
52180;SDS011;38158;53.338;6.514;2023-03-14T07:04:24;5.88;;;0.80;;
52180;SDS011;38158;53.338;6.514;2023-03-14T07:06:50;7.38;;;1.00;;
52180;SDS011;38158;53.338;6.514;2023-03-14T07:09:16;4.88;;;0.40;;
52180;SDS011;38158;53.338;6.514;2023-03-14T07:11:44;4.90;;;0.75;;
52180;SDS011;38158;53.338;6.514;2023-03-14T07:14:10;5.78;;;0.57;;
52180;SDS011;38158;53.338;6.514;2023-03-14T07:16:35;7.43;;;0.47;;
52180;SDS011;38158;53.338;6.514;2023-03-14T07:19:01;6.75;;;0.90;;
52180;SDS011;38158;53.338;6.514;2023-03-14T07:21:27;7.57;;;0.70;;
52180;SDS011;38158;53.338;6.514;2023-03-14T07:23:54;4.38;;;0.40;;
52180;SDS011;38158;53.338;6.514;2023-03-14T07:26:19;4.18;;;0.32;;
52180;SDS011;38158;53.338;6.514;2023-03-14T07:28:45;3.70;;;0.40;;
52180;SDS011;38158;53.338;6.514;2023-03-14T07:31:11;2.45;;;0.43;;
52180;SDS011;38158;53.338;6.514;2023-03-14T07:33:36;6.53;;;0.80;;
52180;SDS011;38158;53.338;6.514;2023-03-14T07:36:03;4.70;;;1.15;;
52180;SDS011;38158;53.338;6.514;2023-03-14T07:38:29;4.53;;;0.35;;
52180;SDS011;38158;53.338;6.514;2023-03-14T07:41:02;4.95;;;0.40;;
52180;SDS011;38158;53.338;6.514;2023-03-14T07:43:29;6.10;;;0.30;;
52180;SDS011;38158;53.338;6.514;2023-03-14T07:45:55;4.93;;;0.30;;
52180;SDS011;38158;53.338;6.514;2023-03-14T07:48:21;3.88;;;0.60;;
52180;SDS011;38158;53.338;6.514;2023-03-14T07:50:50;7.32;;;0.68;;
52180;SDS011;38158;53.338;6.514;2023-03-14T07:53:17;8.30;;;0.55;;
52180;SDS011;38158;53.338;6.514;2023-03-14T07:55:43;10.75;;;0.70;;
52180;SDS011;38158;53.338;6.514;2023-03-14T07:58:09;11.77;;;0.70;;
52180;SDS011;38158;53.338;6.514;2023-03-14T08:00:34;8.88;;;0.40;;
52180;SDS011;38158;53.338;6.514;2023-03-14T08:03:00;8.15;;;0.45;;
52180;SDS011;38158;53.338;6.514;2023-03-14T08:05:26;4.50;;;0.63;;
52180;SDS011;38158;53.338;6.514;2023-03-14T08:07:52;7.78;;;0.80;;
52180;SDS011;38158;53.338;6.514;2023-03-14T08:10:18;8.60;;;0.80;;
52180;SDS011;38158;53.338;6.514;2023-03-14T08:12:50;7.78;;;0.65;;
52180;SDS011;38158;53.338;6.514;2023-03-14T08:15:18;8.18;;;0.70;;
52180;SDS011;38158;53.338;6.514;2023-03-14T08:17:44;11.75;;;1.17;;
52180;SDS011;38158;53.338;6.514;2023-03-14T08:20:10;9.65;;;1.05;;
52180;SDS011;38158;53.338;6.514;2023-03-14T08:22:37;13.48;;;1.73;;
52180;SDS011;38158;53.338;6.514;2023-03-14T08:25:03;10.25;;;1.77;;
52180;SDS011;38158;53.338;6.514;2023-03-14T08:27:29;12.60;;;1.52;;
52180;SDS011;38158;53.338;6.514;2023-03-14T08:29:55;12.68;;;2.28;;
52180;SDS011;38158;53.338;6.514;2023-03-14T08:32:21;21.33;;;2.00;;
52180;SDS011;38158;53.338;6.514;2023-03-14T08:34:48;12.18;;;1.52;;
52180;SDS011;38158;53.338;6.514;2023-03-14T08:37:14;15.60;;;1.60;;
52180;SDS011;38158;53.338;6.514;2023-03-14T08:39:40;15.50;;;2.47;;
52180;SDS011;38158;53.338;6.514;2023-03-14T08:42:06;17.70;;;2.05;;
52180;SDS011;38158;53.338;6.514;2023-03-14T08:44:31;15.48;;;2.22;;
52180;SDS011;38158;53.338;6.514;2023-03-14T08:46:57;19.40;;;2.30;;
52180;SDS011;38158;53.338;6.514;2023-03-14T08:49:23;19.08;;;2.50;;
52180;SDS011;38158;53.338;6.514;2023-03-14T08:51:48;19.48;;;2.85;;
52180;SDS011;38158;53.338;6.514;2023-03-14T08:54:14;16.30;;;2.85;;
52180;SDS011;38158;53.338;6.514;2023-03-14T08:56:40;17.95;;;2.17;;
52180;SDS011;38158;53.338;6.514;2023-03-14T08:59:06;17.80;;;3.03;;
52180;SDS011;38158;53.338;6.514;2023-03-14T09:01:33;20.38;;;1.85;;
52180;SDS011;38158;53.338;6.514;2023-03-14T09:03:58;22.63;;;2.35;;
52180;SDS011;38158;53.338;6.514;2023-03-14T09:06:24;14.95;;;2.38;;
52180;SDS011;38158;53.338;6.514;2023-03-14T09:08:50;18.88;;;2.75;;
52180;SDS011;38158;53.338;6.514;2023-03-14T09:11:16;16.63;;;2.38;;
52180;SDS011;38158;53.338;6.514;2023-03-14T09:13:43;29.02;;;2.80;;
52180;SDS011;38158;53.338;6.514;2023-03-14T09:16:09;22.42;;;3.10;;
52180;SDS011;38158;53.338;6.514;2023-03-14T09:18:35;18.45;;;2.17;;
52180;SDS011;38158;53.338;6.514;2023-03-14T09:21:01;14.95;;;1.75;;
52180;SDS011;38158;53.338;6.514;2023-03-14T09:23:27;20.85;;;2.55;;
52180;SDS011;38158;53.338;6.514;2023-03-14T09:25:56;17.48;;;1.95;;
52180;SDS011;38158;53.338;6.514;2023-03-14T09:28:23;13.75;;;1.92;;
52180;SDS011;38158;53.338;6.514;2023-03-14T09:30:49;11.48;;;1.60;;
52180;SDS011;38158;53.338;6.514;2023-03-14T09:33:15;14.15;;;1.42;;
52180;SDS011;38158;53.338;6.514;2023-03-14T09:35:41;13.35;;;2.35;;
52180;SDS011;38158;53.338;6.514;2023-03-14T09:38:07;21.75;;;2.00;;
52180;SDS011;38158;53.338;6.514;2023-03-14T09:40:36;12.90;;;2.25;;
52180;SDS011;38158;53.338;6.514;2023-03-14T09:43:03;15.70;;;1.98;;
52180;SDS011;38158;53.338;6.514;2023-03-14T09:45:31;15.80;;;2.85;;
52180;SDS011;38158;53.338;6.514;2023-03-14T09:48:04;17.98;;;3.05;;
52180;SDS011;38158;53.338;6.514;2023-03-14T09:50:37;14.77;;;2.03;;
52180;SDS011;38158;53.338;6.514;2023-03-14T09:53:09;20.75;;;2.40;;
52180;SDS011;38158;53.338;6.514;2023-03-14T09:55:45;11.50;;;1.92;;
52180;SDS011;38158;53.338;6.514;2023-03-14T09:58:15;14.80;;;2.55;;
52180;SDS011;38158;53.338;6.514;2023-03-14T10:00:44;13.15;;;2.10;;
52180;SDS011;38158;53.338;6.514;2023-03-14T10:05:39;22.50;;;2.53;;
52180;SDS011;38158;53.338;6.514;2023-03-14T10:08:06;17.92;;;2.45;;
52180;SDS011;38158;53.338;6.514;2023-03-14T10:10:35;14.70;;;2.33;;
52180;SDS011;38158;53.338;6.514;2023-03-14T10:18:19;16.60;;;2.03;;
52180;SDS011;38158;53.338;6.514;2023-03-14T10:20:47;14.30;;;2.00;;
52180;SDS011;38158;53.338;6.514;2023-03-14T10:25:44;11.52;;;2.10;;
52180;SDS011;38158;53.338;6.514;2023-03-14T10:28:22;10.13;;;1.75;;
52180;SDS011;38158;53.338;6.514;2023-03-14T10:30:52;10.68;;;2.42;;
52180;SDS011;38158;53.338;6.514;2023-03-14T10:33:20;15.57;;;1.70;;
52180;SDS011;38158;53.338;6.514;2023-03-14T10:35:55;6.55;;;1.10;;
52180;SDS011;38158;53.338;6.514;2023-03-14T10:38:40;8.73;;;1.50;;
52180;SDS011;38158;53.338;6.514;2023-03-14T10:44:12;11.23;;;1.33;;
52180;SDS011;38158;53.338;6.514;2023-03-14T10:46:38;7.28;;;0.98;;
52180;SDS011;38158;53.338;6.514;2023-03-14T10:49:04;10.18;;;1.35;;
52180;SDS011;38158;53.338;6.514;2023-03-14T10:54:01;6.78;;;1.00;;
52180;SDS011;38158;53.338;6.514;2023-03-14T10:56:32;6.35;;;1.00;;
52180;SDS011;38158;53.338;6.514;2023-03-14T10:59:00;11.05;;;1.23;;
52180;SDS011;38158;53.338;6.514;2023-03-14T11:01:45;8.05;;;1.30;;
52180;SDS011;38158;53.338;6.514;2023-03-14T11:07:42;12.00;;;0.98;;
52180;SDS011;38158;53.338;6.514;2023-03-14T11:15:25;7.50;;;0.85;;
52180;SDS011;38158;53.338;6.514;2023-03-14T11:18:13;4.28;;;0.65;;
52180;SDS011;38158;53.338;6.514;2023-03-14T11:23:57;7.00;;;0.90;;
52180;SDS011;38158;53.338;6.514;2023-03-14T11:26:58;6.10;;;0.60;;
52180;SDS011;38158;53.338;6.514;2023-03-14T11:35:15;6.70;;;0.73;;
52180;SDS011;38158;53.338;6.514;2023-03-14T11:40:41;5.70;;;0.87;;
52180;SDS011;38158;53.338;6.514;2023-03-14T11:45:54;8.40;;;1.70;;
52180;SDS011;38158;53.338;6.514;2023-03-14T11:51:09;6.97;;;0.88;;
52180;SDS011;38158;53.338;6.514;2023-03-14T11:56:17;6.85;;;0.85;;
52180;SDS011;38158;53.338;6.514;2023-03-14T11:58:54;7.30;;;1.38;;
52180;SDS011;38158;53.338;6.514;2023-03-14T12:01:24;7.00;;;1.20;;
52180;SDS011;38158;53.338;6.514;2023-03-14T12:04:01;10.35;;;1.17;;
52180;SDS011;38158;53.338;6.514;2023-03-14T12:06:46;5.50;;;0.95;;
52180;SDS011;38158;53.338;6.514;2023-03-14T12:09:15;10.07;;;1.48;;
52180;SDS011;38158;53.338;6.514;2023-03-14T12:11:47;11.00;;;1.45;;
52180;SDS011;38158;53.338;6.514;2023-03-14T12:17:07;8.10;;;1.77;;
52180;SDS011;38158;53.338;6.514;2023-03-14T12:22:42;9.88;;;1.23;;
52180;SDS011;38158;53.338;6.514;2023-03-14T12:25:23;11.32;;;1.10;;
52180;SDS011;38158;53.338;6.514;2023-03-14T12:38:52;3.72;;;0.82;;
52180;SDS011;38158;53.338;6.514;2023-03-14T12:43:51;9.23;;;1.02;;
52180;SDS011;38158;53.338;6.514;2023-03-14T12:48:46;7.53;;;0.95;;
52180;SDS011;38158;53.338;6.514;2023-03-14T12:51:15;6.40;;;0.60;;
52180;SDS011;38158;53.338;6.514;2023-03-14T13:04:27;6.85;;;1.05;;
52180;SDS011;38158;53.338;6.514;2023-03-14T13:06:58;4.95;;;0.95;;
52180;SDS011;38158;53.338;6.514;2023-03-14T13:11:54;7.20;;;1.27;;
52180;SDS011;38158;53.338;6.514;2023-03-14T13:14:25;5.43;;;1.23;;
52180;SDS011;38158;53.338;6.514;2023-03-14T13:16:53;7.20;;;0.82;;
52180;SDS011;38158;53.338;6.514;2023-03-14T13:19:27;4.97;;;0.80;;
52180;SDS011;38158;53.338;6.514;2023-03-14T13:22:06;9.00;;;0.98;;
52180;SDS011;38158;53.338;6.514;2023-03-14T13:24:44;5.40;;;0.52;;
52180;SDS011;38158;53.338;6.514;2023-03-14T13:27:20;7.00;;;0.90;;
52180;SDS011;38158;53.338;6.514;2023-03-14T13:29:48;11.07;;;1.25;;
52180;SDS011;38158;53.338;6.514;2023-03-14T13:32:22;11.23;;;1.20;;
52180;SDS011;38158;53.338;6.514;2023-03-14T13:34:55;10.68;;;1.02;;
52180;SDS011;38158;53.338;6.514;2023-03-14T13:37:23;7.57;;;0.73;;
52180;SDS011;38158;53.338;6.514;2023-03-14T13:39:50;8.80;;;1.38;;
52180;SDS011;38158;53.338;6.514;2023-03-14T13:42:18;7.68;;;0.80;;
52180;SDS011;38158;53.338;6.514;2023-03-14T13:44:44;10.05;;;1.25;;
52180;SDS011;38158;53.338;6.514;2023-03-14T13:49:41;9.35;;;1.20;;
52180;SDS011;38158;53.338;6.514;2023-03-14T13:55:13;12.45;;;1.65;;
52180;SDS011;38158;53.338;6.514;2023-03-14T13:57:45;9.95;;;1.52;;
52180;SDS011;38158;53.338;6.514;2023-03-14T14:00:22;11.57;;;1.38;;
52180;SDS011;38158;53.338;6.514;2023-03-14T14:02:53;10.23;;;1.60;;
52180;SDS011;38158;53.338;6.514;2023-03-14T14:07:46;6.40;;;1.00;;
52180;SDS011;38158;53.338;6.514;2023-03-14T14:10:13;7.43;;;0.90;;
52180;SDS011;38158;53.338;6.514;2023-03-14T14:12:44;4.75;;;1.10;;
52180;SDS011;38158;53.338;6.514;2023-03-14T14:15:18;6.60;;;0.90;;
52180;SDS011;38158;53.338;6.514;2023-03-14T14:17:56;5.78;;;0.80;;
52180;SDS011;38158;53.338;6.514;2023-03-14T14:20:27;7.28;;;1.00;;
52180;SDS011;38158;53.338;6.514;2023-03-14T14:22:57;11.73;;;2.35;;
52180;SDS011;38158;53.338;6.514;2023-03-14T14:25:24;18.08;;;3.83;;
52180;SDS011;38158;53.338;6.514;2023-03-14T14:27:50;16.52;;;2.83;;
52180;SDS011;38158;53.338;6.514;2023-03-14T14:32:48;26.38;;;4.90;;
52180;SDS011;38158;53.338;6.514;2023-03-14T14:35:25;22.05;;;4.55;;
52180;SDS011;38158;53.338;6.514;2023-03-14T14:37:59;28.83;;;4.90;;
52180;SDS011;38158;53.338;6.514;2023-03-14T14:40:27;20.75;;;3.65;;
52180;SDS011;38158;53.338;6.514;2023-03-14T14:42:55;12.77;;;2.03;;
52180;SDS011;38158;53.338;6.514;2023-03-14T14:45:28;8.55;;;1.60;;
52180;SDS011;38158;53.338;6.514;2023-03-14T14:47:54;7.40;;;1.10;;
52180;SDS011;38158;53.338;6.514;2023-03-14T14:55:53;5.93;;;1.02;;
52180;SDS011;38158;53.338;6.514;2023-03-14T14:58:25;8.63;;;2.20;;
52180;SDS011;38158;53.338;6.514;2023-03-14T15:03:29;9.95;;;1.40;;
52180;SDS011;38158;53.338;6.514;2023-03-14T15:05:57;8.80;;;1.50;;
52180;SDS011;38158;53.338;6.514;2023-03-14T15:08:24;5.82;;;0.85;;
52180;SDS011;38158;53.338;6.514;2023-03-14T15:10:50;7.47;;;1.02;;
52180;SDS011;38158;53.338;6.514;2023-03-14T15:13:16;8.13;;;1.05;;
52180;SDS011;38158;53.338;6.514;2023-03-14T15:15:42;5.45;;;1.10;;
52180;SDS011;38158;53.338;6.514;2023-03-14T15:18:12;9.80;;;1.13;;
52180;SDS011;38158;53.338;6.514;2023-03-14T15:20:43;6.72;;;1.00;;
52180;SDS011;38158;53.338;6.514;2023-03-14T15:23:12;6.88;;;1.15;;
52180;SDS011;38158;53.338;6.514;2023-03-14T15:25:40;13.90;;;3.22;;
52180;SDS011;38158;53.338;6.514;2023-03-14T15:30:39;10.85;;;2.17;;
52180;SDS011;38158;53.338;6.514;2023-03-14T15:33:04;11.25;;;1.58;;
52180;SDS011;38158;53.338;6.514;2023-03-14T15:35:34;9.40;;;1.40;;
52180;SDS011;38158;53.338;6.514;2023-03-14T15:38:03;13.85;;;1.98;;
52180;SDS011;38158;53.338;6.514;2023-03-14T15:40:29;7.30;;;1.20;;
52180;SDS011;38158;53.338;6.514;2023-03-14T15:42:55;9.70;;;1.45;;
52180;SDS011;38158;53.338;6.514;2023-03-14T15:45:20;5.90;;;1.17;;
52180;SDS011;38158;53.338;6.514;2023-03-14T15:47:46;4.85;;;1.30;;
52180;SDS011;38158;53.338;6.514;2023-03-14T15:50:12;10.10;;;2.78;;
52180;SDS011;38158;53.338;6.514;2023-03-14T15:52:37;7.50;;;2.10;;
52180;SDS011;38158;53.338;6.514;2023-03-14T15:55:03;14.25;;;4.45;;
52180;SDS011;38158;53.338;6.514;2023-03-14T15:57:29;8.45;;;1.20;;
52180;SDS011;38158;53.338;6.514;2023-03-14T15:59:55;8.88;;;1.55;;
52180;SDS011;38158;53.338;6.514;2023-03-14T16:02:21;13.60;;;3.28;;
52180;SDS011;38158;53.338;6.514;2023-03-14T16:04:46;11.00;;;3.20;;
52180;SDS011;38158;53.338;6.514;2023-03-14T16:07:12;12.05;;;2.20;;
52180;SDS011;38158;53.338;6.514;2023-03-14T16:09:38;9.63;;;1.33;;
52180;SDS011;38158;53.338;6.514;2023-03-14T16:12:03;12.88;;;2.70;;
52180;SDS011;38158;53.338;6.514;2023-03-14T16:14:31;8.90;;;1.63;;
52180;SDS011;38158;53.338;6.514;2023-03-14T16:16:57;13.40;;;2.95;;
52180;SDS011;38158;53.338;6.514;2023-03-14T16:19:27;13.20;;;2.08;;
52180;SDS011;38158;53.338;6.514;2023-03-14T16:21:53;11.18;;;1.67;;
52180;SDS011;38158;53.338;6.514;2023-03-14T16:24:19;11.98;;;1.75;;
52180;SDS011;38158;53.338;6.514;2023-03-14T16:26:44;8.65;;;2.22;;
52180;SDS011;38158;53.338;6.514;2023-03-14T16:29:11;9.55;;;1.50;;
52180;SDS011;38158;53.338;6.514;2023-03-14T16:31:37;7.60;;;1.80;;
52180;SDS011;38158;53.338;6.514;2023-03-14T16:34:10;8.10;;;2.17;;
52180;SDS011;38158;53.338;6.514;2023-03-14T16:36:36;12.27;;;1.85;;
52180;SDS011;38158;53.338;6.514;2023-03-14T16:39:02;7.97;;;0.93;;
52180;SDS011;38158;53.338;6.514;2023-03-14T16:41:28;14.50;;;1.65;;
52180;SDS011;38158;53.338;6.514;2023-03-14T16:43:59;16.92;;;2.13;;
52180;SDS011;38158;53.338;6.514;2023-03-14T16:46:26;9.63;;;2.13;;